sensor_id;sensor_type;location;lat;lon;timestamp;temperature;humidity
77052;SHT30;65980;44.898;8.602;2023-02-28T00:01:50;5.24;75.22
77052;SHT30;65980;44.898;8.602;2023-02-28T00:04:54;5.12;76.51
77052;SHT30;65980;44.898;8.602;2023-02-28T00:08:04;5.27;75.71
77052;SHT30;65980;44.898;8.602;2023-02-28T00:11:09;5.21;76.09
77052;SHT30;65980;44.898;8.602;2023-02-28T00:14:14;5.27;76.14
77052;SHT30;65980;44.898;8.602;2023-02-28T00:17:18;5.13;75.97
77052;SHT30;65980;44.898;8.602;2023-02-28T00:20:24;5.32;75.48
77052;SHT30;65980;44.898;8.602;2023-02-28T00:23:28;5.38;75.35
77052;SHT30;65980;44.898;8.602;2023-02-28T00:26:32;5.31;75.44
77052;SHT30;65980;44.898;8.602;2023-02-28T00:29:36;5.30;75.56
77052;SHT30;65980;44.898;8.602;2023-02-28T00:32:41;5.09;76.62
77052;SHT30;65980;44.898;8.602;2023-02-28T00:35:45;4.83;77.66
77052;SHT30;65980;44.898;8.602;2023-02-28T00:38:50;4.80;77.71
77052;SHT30;65980;44.898;8.602;2023-02-28T00:41:54;4.80;77.70
77052;SHT30;65980;44.898;8.602;2023-02-28T00:44:58;4.90;77.34
77052;SHT30;65980;44.898;8.602;2023-02-28T00:48:02;4.97;76.96
77052;SHT30;65980;44.898;8.602;2023-02-28T00:51:07;5.13;75.96
77052;SHT30;65980;44.898;8.602;2023-02-28T00:54:11;5.12;75.42
77052;SHT30;65980;44.898;8.602;2023-02-28T00:57:15;5.04;74.57
77052;SHT30;65980;44.898;8.602;2023-02-28T01:00:19;5.01;74.63
77052;SHT30;65980;44.898;8.602;2023-02-28T01:03:23;5.09;72.89
77052;SHT30;65980;44.898;8.602;2023-02-28T01:06:27;5.01;72.43
77052;SHT30;65980;44.898;8.602;2023-02-28T01:09:31;5.04;71.45
77052;SHT30;65980;44.898;8.602;2023-02-28T01:12:36;5.21;71.70
77052;SHT30;65980;44.898;8.602;2023-02-28T01:15:40;5.16;71.35
77052;SHT30;65980;44.898;8.602;2023-02-28T01:18:45;5.07;70.09
77052;SHT30;65980;44.898;8.602;2023-02-28T01:21:49;5.30;68.84
77052;SHT30;65980;44.898;8.602;2023-02-28T01:24:53;5.20;69.11
77052;SHT30;65980;44.898;8.602;2023-02-28T01:27:57;5.16;69.25
77052;SHT30;65980;44.898;8.602;2023-02-28T01:31:01;5.30;68.80
77052;SHT30;65980;44.898;8.602;2023-02-28T01:34:05;5.21;67.78
77052;SHT30;65980;44.898;8.602;2023-02-28T01:37:09;5.19;68.60
77052;SHT30;65980;44.898;8.602;2023-02-28T01:40:13;5.40;68.44
77052;SHT30;65980;44.898;8.602;2023-02-28T01:43:22;5.59;66.81
77052;SHT30;65980;44.898;8.602;2023-02-28T01:46:27;5.27;67.82
77052;SHT30;65980;44.898;8.602;2023-02-28T01:49:31;5.34;67.53
77052;SHT30;65980;44.898;8.602;2023-02-28T01:52:35;5.38;67.07
77052;SHT30;65980;44.898;8.602;2023-02-28T01:55:39;5.28;67.18
77052;SHT30;65980;44.898;8.602;2023-02-28T01:58:44;5.23;67.12
77052;SHT30;65980;44.898;8.602;2023-02-28T02:01:48;5.13;65.79
77052;SHT30;65980;44.898;8.602;2023-02-28T02:05:00;5.07;65.97
77052;SHT30;65980;44.898;8.602;2023-02-28T02:08:06;5.07;66.70
77052;SHT30;65980;44.898;8.602;2023-02-28T02:11:11;5.19;66.09
77052;SHT30;65980;44.898;8.602;2023-02-28T02:17:38;5.30;66.18
77052;SHT30;65980;44.898;8.602;2023-02-28T02:40:36;5.16;65.83
77052;SHT30;65980;44.898;8.602;2023-02-28T02:47:05;5.01;66.98
77052;SHT30;65980;44.898;8.602;2023-02-28T02:50:13;5.12;66.45
77052;SHT30;65980;44.898;8.602;2023-02-28T02:53:21;5.06;66.54
77052;SHT30;65980;44.898;8.602;2023-02-28T02:56:27;5.10;66.19
77052;SHT30;65980;44.898;8.602;2023-02-28T02:59:33;5.23;65.86
77052;SHT30;65980;44.898;8.602;2023-02-28T03:02:39;4.95;66.47
77052;SHT30;65980;44.898;8.602;2023-02-28T03:05:48;5.13;66.16
77052;SHT30;65980;44.898;8.602;2023-02-28T03:08:53;5.12;66.03
77052;SHT30;65980;44.898;8.602;2023-02-28T03:12:00;5.06;66.36
77052;SHT30;65980;44.898;8.602;2023-02-28T03:15:13;5.12;66.04
77052;SHT30;65980;44.898;8.602;2023-02-28T03:18:49;5.09;66.39
77052;SHT30;65980;44.898;8.602;2023-02-28T03:31:48;4.75;66.78
77052;SHT30;65980;44.898;8.602;2023-02-28T03:34:56;4.93;66.27
77052;SHT30;65980;44.898;8.602;2023-02-28T03:38:10;4.95;66.69
77052;SHT30;65980;44.898;8.602;2023-02-28T03:41:19;4.77;66.81
77052;SHT30;65980;44.898;8.602;2023-02-28T03:44:25;4.62;67.29
77052;SHT30;65980;44.898;8.602;2023-02-28T03:47:36;4.61;67.89
77052;SHT30;65980;44.898;8.602;2023-02-28T03:50:44;4.54;68.06
77052;SHT30;65980;44.898;8.602;2023-02-28T03:53:52;4.49;67.94
77052;SHT30;65980;44.898;8.602;2023-02-28T04:00:30;4.57;67.91
77052;SHT30;65980;44.898;8.602;2023-02-28T04:03:36;4.59;67.64
77052;SHT30;65980;44.898;8.602;2023-02-28T04:06:41;4.55;67.90
77052;SHT30;65980;44.898;8.602;2023-02-28T04:09:45;4.55;68.10
77052;SHT30;65980;44.898;8.602;2023-02-28T04:12:50;4.59;67.53
77052;SHT30;65980;44.898;8.602;2023-02-28T04:15:54;4.55;67.82
77052;SHT30;65980;44.898;8.602;2023-02-28T04:18:58;4.65;67.39
77052;SHT30;65980;44.898;8.602;2023-02-28T04:22:05;4.73;67.49
77052;SHT30;65980;44.898;8.602;2023-02-28T04:25:10;4.82;67.32
77052;SHT30;65980;44.898;8.602;2023-02-28T04:28:13;4.45;68.04
77052;SHT30;65980;44.898;8.602;2023-02-28T04:31:18;4.41;69.15
77052;SHT30;65980;44.898;8.602;2023-02-28T04:34:21;4.37;68.80
77052;SHT30;65980;44.898;8.602;2023-02-28T04:37:29;4.49;68.16
77052;SHT30;65980;44.898;8.602;2023-02-28T04:40:32;4.65;68.14
77052;SHT30;65980;44.898;8.602;2023-02-28T04:43:37;4.47;68.33
77052;SHT30;65980;44.898;8.602;2023-02-28T04:46:41;4.38;68.84
77052;SHT30;65980;44.898;8.602;2023-02-28T04:49:46;4.48;68.65
77052;SHT30;65980;44.898;8.602;2023-02-28T04:52:50;4.33;69.14
77052;SHT30;65980;44.898;8.602;2023-02-28T04:55:54;4.41;69.12
77052;SHT30;65980;44.898;8.602;2023-02-28T04:58:58;4.47;68.64
77052;SHT30;65980;44.898;8.602;2023-02-28T05:02:03;4.57;68.01
77052;SHT30;65980;44.898;8.602;2023-02-28T05:05:09;4.42;68.32
77052;SHT30;65980;44.898;8.602;2023-02-28T05:08:14;4.33;68.37
77052;SHT30;65980;44.898;8.602;2023-02-28T05:11:20;4.27;69.46
77052;SHT30;65980;44.898;8.602;2023-02-28T05:14:24;4.37;68.71
77052;SHT30;65980;44.898;8.602;2023-02-28T05:17:28;4.38;68.91
77052;SHT30;65980;44.898;8.602;2023-02-28T05:20:34;4.45;68.55
77052;SHT30;65980;44.898;8.602;2023-02-28T05:23:38;4.42;68.17
77052;SHT30;65980;44.898;8.602;2023-02-28T05:26:42;4.27;69.43
77052;SHT30;65980;44.898;8.602;2023-02-28T05:29:47;4.37;68.90
77052;SHT30;65980;44.898;8.602;2023-02-28T05:32:51;4.31;70.40
77052;SHT30;65980;44.898;8.602;2023-02-28T05:35:55;4.37;68.47
77052;SHT30;65980;44.898;8.602;2023-02-28T05:39:00;4.38;68.62
77052;SHT30;65980;44.898;8.602;2023-02-28T05:42:04;4.42;68.63
77052;SHT30;65980;44.898;8.602;2023-02-28T05:45:09;4.51;68.49
77052;SHT30;65980;44.898;8.602;2023-02-28T05:48:14;4.54;67.10
77052;SHT30;65980;44.898;8.602;2023-02-28T05:51:19;4.34;68.55
77052;SHT30;65980;44.898;8.602;2023-02-28T05:54:23;4.31;68.02
77052;SHT30;65980;44.898;8.602;2023-02-28T05:57:27;4.41;67.06
77052;SHT30;65980;44.898;8.602;2023-02-28T06:00:31;4.65;66.98
77052;SHT30;65980;44.898;8.602;2023-02-28T06:03:35;4.48;66.96
77052;SHT30;65980;44.898;8.602;2023-02-28T06:06:39;4.25;67.96
77052;SHT30;65980;44.898;8.602;2023-02-28T06:09:44;4.18;68.93
77052;SHT30;65980;44.898;8.602;2023-02-28T06:12:49;4.24;68.44
77052;SHT30;65980;44.898;8.602;2023-02-28T06:15:53;4.18;68.24
77052;SHT30;65980;44.898;8.602;2023-02-28T06:18:57;4.13;68.36
77052;SHT30;65980;44.898;8.602;2023-02-28T06:22:00;4.29;68.18
77052;SHT30;65980;44.898;8.602;2023-02-28T06:25:05;4.33;68.68
77052;SHT30;65980;44.898;8.602;2023-02-28T06:28:10;4.38;67.37
77052;SHT30;65980;44.898;8.602;2023-02-28T06:31:15;4.45;67.17
77052;SHT30;65980;44.898;8.602;2023-02-28T06:34:19;4.76;66.45
77052;SHT30;65980;44.898;8.602;2023-02-28T06:37:30;4.69;66.33
77052;SHT30;65980;44.898;8.602;2023-02-28T06:40:35;4.79;65.68
77052;SHT30;65980;44.898;8.602;2023-02-28T06:43:40;4.66;65.72
77052;SHT30;65980;44.898;8.602;2023-02-28T06:46:46;4.42;66.19
77052;SHT30;65980;44.898;8.602;2023-02-28T06:49:51;4.41;66.82
77052;SHT30;65980;44.898;8.602;2023-02-28T06:52:56;4.42;65.49
77052;SHT30;65980;44.898;8.602;2023-02-28T06:56:03;4.45;65.48
77052;SHT30;65980;44.898;8.602;2023-02-28T06:59:08;4.48;64.79
77052;SHT30;65980;44.898;8.602;2023-02-28T07:02:11;4.55;64.41
77052;SHT30;65980;44.898;8.602;2023-02-28T07:05:15;4.51;64.95
77052;SHT30;65980;44.898;8.602;2023-02-28T07:08:19;4.87;63.51
77052;SHT30;65980;44.898;8.602;2023-02-28T07:11:24;4.73;63.49
77052;SHT30;65980;44.898;8.602;2023-02-28T07:14:30;4.57;63.76
77052;SHT30;65980;44.898;8.602;2023-02-28T07:17:33;4.59;63.04
77052;SHT30;65980;44.898;8.602;2023-02-28T07:20:37;4.59;64.31
77052;SHT30;65980;44.898;8.602;2023-02-28T07:23:42;4.79;63.87
77052;SHT30;65980;44.898;8.602;2023-02-28T07:26:46;4.69;63.02
77052;SHT30;65980;44.898;8.602;2023-02-28T07:29:50;4.93;62.80
77052;SHT30;65980;44.898;8.602;2023-02-28T07:32:53;5.19;61.89
77052;SHT30;65980;44.898;8.602;2023-02-28T07:36:00;4.95;63.03
77052;SHT30;65980;44.898;8.602;2023-02-28T07:39:05;5.09;62.93
77052;SHT30;65980;44.898;8.602;2023-02-28T07:42:08;4.89;64.04
77052;SHT30;65980;44.898;8.602;2023-02-28T07:45:17;4.99;63.24
77052;SHT30;65980;44.898;8.602;2023-02-28T07:48:25;4.85;61.50
77052;SHT30;65980;44.898;8.602;2023-02-28T07:51:30;5.20;62.43
77052;SHT30;65980;44.898;8.602;2023-02-28T07:54:34;4.89;62.43
77052;SHT30;65980;44.898;8.602;2023-02-28T07:57:38;5.03;61.64
77052;SHT30;65980;44.898;8.602;2023-02-28T08:00:42;4.87;61.90
77052;SHT30;65980;44.898;8.602;2023-02-28T08:03:46;5.07;61.32
77052;SHT30;65980;44.898;8.602;2023-02-28T08:06:50;4.69;61.76
77052;SHT30;65980;44.898;8.602;2023-02-28T08:09:58;4.79;61.26
77052;SHT30;65980;44.898;8.602;2023-02-28T08:13:03;4.79;61.76
77052;SHT30;65980;44.898;8.602;2023-02-28T08:16:07;4.73;62.03
77052;SHT30;65980;44.898;8.602;2023-02-28T08:19:11;4.85;62.25
77052;SHT30;65980;44.898;8.602;2023-02-28T08:22:15;4.83;62.37
77052;SHT30;65980;44.898;8.602;2023-02-28T08:25:19;5.07;61.27
77052;SHT30;65980;44.898;8.602;2023-02-28T08:28:23;5.14;62.42
77052;SHT30;65980;44.898;8.602;2023-02-28T08:31:27;5.30;60.52
77052;SHT30;65980;44.898;8.602;2023-02-28T08:34:33;5.32;60.61
77052;SHT30;65980;44.898;8.602;2023-02-28T08:37:37;5.38;60.06
77052;SHT30;65980;44.898;8.602;2023-02-28T08:40:41;5.30;60.87
77052;SHT30;65980;44.898;8.602;2023-02-28T08:43:46;5.44;60.59
77052;SHT30;65980;44.898;8.602;2023-02-28T08:46:50;5.56;58.84
77052;SHT30;65980;44.898;8.602;2023-02-28T08:49:54;5.35;59.72
77052;SHT30;65980;44.898;8.602;2023-02-28T08:52:58;5.58;59.63
77052;SHT30;65980;44.898;8.602;2023-02-28T08:56:08;5.51;61.27
77052;SHT30;65980;44.898;8.602;2023-02-28T08:59:19;5.68;60.00
77052;SHT30;65980;44.898;8.602;2023-02-28T09:02:24;5.79;60.12
77052;SHT30;65980;44.898;8.602;2023-02-28T09:05:31;5.94;60.66
77052;SHT30;65980;44.898;8.602;2023-02-28T09:08:35;5.93;59.68
77052;SHT30;65980;44.898;8.602;2023-02-28T09:11:40;6.11;59.03
77052;SHT30;65980;44.898;8.602;2023-02-28T09:14:45;6.09;58.87
77052;SHT30;65980;44.898;8.602;2023-02-28T09:17:48;6.17;59.24
77052;SHT30;65980;44.898;8.602;2023-02-28T09:20:52;6.75;58.68
77052;SHT30;65980;44.898;8.602;2023-02-28T09:24:00;6.35;58.23
77052;SHT30;65980;44.898;8.602;2023-02-28T09:27:05;6.31;60.14
77052;SHT30;65980;44.898;8.602;2023-02-28T09:30:10;7.00;57.38
77052;SHT30;65980;44.898;8.602;2023-02-28T09:33:15;6.93;56.50
77052;SHT30;65980;44.898;8.602;2023-02-28T09:36:20;6.96;56.74
77052;SHT30;65980;44.898;8.602;2023-02-28T09:39:24;6.96;57.24
77052;SHT30;65980;44.898;8.602;2023-02-28T09:42:31;7.13;56.48
77052;SHT30;65980;44.898;8.602;2023-02-28T09:45:36;6.79;55.70
77052;SHT30;65980;44.898;8.602;2023-02-28T09:48:43;6.96;56.26
77052;SHT30;65980;44.898;8.602;2023-02-28T09:52:02;7.18;56.31
77052;SHT30;65980;44.898;8.602;2023-02-28T09:55:19;6.86;55.29
77052;SHT30;65980;44.898;8.602;2023-02-28T09:58:40;7.35;55.98
77052;SHT30;65980;44.898;8.602;2023-02-28T10:14:21;8.76;53.11
77052;SHT30;65980;44.898;8.602;2023-02-28T10:17:36;8.27;54.60
77052;SHT30;65980;44.898;8.602;2023-02-28T10:20:41;7.94;57.58
77052;SHT30;65980;44.898;8.602;2023-02-28T10:23:47;8.11;55.94
77052;SHT30;65980;44.898;8.602;2023-02-28T10:26:52;7.62;57.09
77052;SHT30;65980;44.898;8.602;2023-02-28T10:30:02;8.05;56.14
77052;SHT30;65980;44.898;8.602;2023-02-28T10:33:11;8.31;54.54
77052;SHT30;65980;44.898;8.602;2023-02-28T10:36:20;8.39;55.29
77052;SHT30;65980;44.898;8.602;2023-02-28T10:39:57;8.27;54.01
77052;SHT30;65980;44.898;8.602;2023-02-28T10:42:55;8.59;52.83
77052;SHT30;65980;44.898;8.602;2023-02-28T10:46:02;8.42;52.20
77052;SHT30;65980;44.898;8.602;2023-02-28T10:49:12;7.79;53.66
77052;SHT30;65980;44.898;8.602;2023-02-28T10:57:05;8.14;51.97
77052;SHT30;65980;44.898;8.602;2023-02-28T11:00:18;7.66;53.21
77052;SHT30;65980;44.898;8.602;2023-02-28T11:06:31;7.28;53.90
77052;SHT30;65980;44.898;8.602;2023-02-28T11:09:37;7.36;54.38
77052;SHT30;65980;44.898;8.602;2023-02-28T11:12:42;7.30;53.54
77052;SHT30;65980;44.898;8.602;2023-02-28T11:15:51;7.20;54.95
77052;SHT30;65980;44.898;8.602;2023-02-28T11:18:56;7.22;54.01
77052;SHT30;65980;44.898;8.602;2023-02-28T11:22:02;7.13;53.40
77052;SHT30;65980;44.898;8.602;2023-02-28T11:25:08;7.14;55.12
77052;SHT30;65980;44.898;8.602;2023-02-28T11:31:32;7.07;55.85
77052;SHT30;65980;44.898;8.602;2023-02-28T11:34:37;7.32;55.01
77052;SHT30;65980;44.898;8.602;2023-02-28T11:37:41;7.59;54.87
77052;SHT30;65980;44.898;8.602;2023-02-28T11:47:21;7.65;54.68
77052;SHT30;65980;44.898;8.602;2023-02-28T11:56:57;8.00;56.05
77052;SHT30;65980;44.898;8.602;2023-02-28T12:00:06;7.41;56.01
77052;SHT30;65980;44.898;8.602;2023-02-28T12:03:21;7.66;55.58
77052;SHT30;65980;44.898;8.602;2023-02-28T12:12:53;7.80;56.43
77052;SHT30;65980;44.898;8.602;2023-02-28T12:16:19;8.11;55.41
77052;SHT30;65980;44.898;8.602;2023-02-28T12:23:06;7.73;57.08
77052;SHT30;65980;44.898;8.602;2023-02-28T12:29:30;8.01;54.59
77052;SHT30;65980;44.898;8.602;2023-02-28T12:32:37;8.05;56.77
77052;SHT30;65980;44.898;8.602;2023-02-28T12:39:15;7.82;57.62
77052;SHT30;65980;44.898;8.602;2023-02-28T12:42:32;7.89;57.83
77052;SHT30;65980;44.898;8.602;2023-02-28T12:45:42;8.24;56.71
77052;SHT30;65980;44.898;8.602;2023-02-28T12:48:48;8.45;56.91
77052;SHT30;65980;44.898;8.602;2023-02-28T12:51:53;8.60;55.52
77052;SHT30;65980;44.898;8.602;2023-02-28T12:55:05;8.63;55.25
77052;SHT30;65980;44.898;8.602;2023-02-28T12:58:25;8.52;54.46
77052;SHT30;65980;44.898;8.602;2023-02-28T13:01:39;8.58;54.71
77052;SHT30;65980;44.898;8.602;2023-02-28T13:04:52;8.59;55.18
77052;SHT30;65980;44.898;8.602;2023-02-28T13:08:12;8.66;54.05
77052;SHT30;65980;44.898;8.602;2023-02-28T13:11:25;9.50;52.38
77052;SHT30;65980;44.898;8.602;2023-02-28T13:14:30;9.49;52.46
77052;SHT30;65980;44.898;8.602;2023-02-28T13:17:39;9.42;53.32
77052;SHT30;65980;44.898;8.602;2023-02-28T13:20:47;9.28;54.20
77052;SHT30;65980;44.898;8.602;2023-02-28T13:33:27;9.59;54.60
77052;SHT30;65980;44.898;8.602;2023-02-28T13:36:32;9.73;52.25
77052;SHT30;65980;44.898;8.602;2023-02-28T13:46:05;8.83;54.05
77052;SHT30;65980;44.898;8.602;2023-02-28T13:52:32;9.67;51.01
77052;SHT30;65980;44.898;8.602;2023-02-28T13:59:14;9.98;51.55
77052;SHT30;65980;44.898;8.602;2023-02-28T14:02:36;10.04;50.99
77052;SHT30;65980;44.898;8.602;2023-02-28T14:05:44;9.97;53.03
77052;SHT30;65980;44.898;8.602;2023-02-28T14:08:56;9.66;52.41
77052;SHT30;65980;44.898;8.602;2023-02-28T14:18:41;8.88;55.00
77052;SHT30;65980;44.898;8.602;2023-02-28T14:28:49;8.46;56.61
77052;SHT30;65980;44.898;8.602;2023-02-28T14:38:26;8.22;59.40
77052;SHT30;65980;44.898;8.602;2023-02-28T14:41:32;8.25;58.97
77052;SHT30;65980;44.898;8.602;2023-02-28T14:44:41;8.31;58.16
77052;SHT30;65980;44.898;8.602;2023-02-28T14:47:45;8.08;58.75
77052;SHT30;65980;44.898;8.602;2023-02-28T14:50:59;7.90;59.91
77052;SHT30;65980;44.898;8.602;2023-02-28T14:54:03;7.90;60.01
77052;SHT30;65980;44.898;8.602;2023-02-28T14:57:24;7.97;59.99
77052;SHT30;65980;44.898;8.602;2023-02-28T15:00:32;7.94;59.63
77052;SHT30;65980;44.898;8.602;2023-02-28T15:03:38;8.08;59.46
77052;SHT30;65980;44.898;8.602;2023-02-28T15:06:43;8.03;58.76
77052;SHT30;65980;44.898;8.602;2023-02-28T15:09:47;7.98;58.98
77052;SHT30;65980;44.898;8.602;2023-02-28T15:19:23;8.76;57.09
77052;SHT30;65980;44.898;8.602;2023-02-28T15:22:34;8.70;56.70
77052;SHT30;65980;44.898;8.602;2023-02-28T15:25:39;8.22;57.69
77052;SHT30;65980;44.898;8.602;2023-02-28T15:28:44;7.98;57.95
77052;SHT30;65980;44.898;8.602;2023-02-28T15:31:50;7.79;58.86
77052;SHT30;65980;44.898;8.602;2023-02-28T15:34:55;7.82;58.43
77052;SHT30;65980;44.898;8.602;2023-02-28T15:38:01;7.87;59.37
77052;SHT30;65980;44.898;8.602;2023-02-28T15:41:20;7.73;59.20
77052;SHT30;65980;44.898;8.602;2023-02-28T15:44:26;7.59;60.00
77052;SHT30;65980;44.898;8.602;2023-02-28T15:47:31;7.49;60.81
77052;SHT30;65980;44.898;8.602;2023-02-28T15:50:35;7.42;61.20
77052;SHT30;65980;44.898;8.602;2023-02-28T15:56:55;7.39;60.73
77052;SHT30;65980;44.898;8.602;2023-02-28T16:00:03;7.44;60.89
77052;SHT30;65980;44.898;8.602;2023-02-28T16:03:22;7.49;61.20
77052;SHT30;65980;44.898;8.602;2023-02-28T16:09:40;7.49;61.59
77052;SHT30;65980;44.898;8.602;2023-02-28T16:12:46;7.55;61.38
77052;SHT30;65980;44.898;8.602;2023-02-28T16:15:50;7.49;61.54
77052;SHT30;65980;44.898;8.602;2023-02-28T16:18:55;7.54;62.35
77052;SHT30;65980;44.898;8.602;2023-02-28T16:22:00;7.55;63.09
77052;SHT30;65980;44.898;8.602;2023-02-28T16:25:05;7.59;62.54
77052;SHT30;65980;44.898;8.602;2023-02-28T16:28:24;7.56;63.01
77052;SHT30;65980;44.898;8.602;2023-02-28T16:31:29;7.52;63.12
77052;SHT30;65980;44.898;8.602;2023-02-28T16:34:36;7.44;63.36
77052;SHT30;65980;44.898;8.602;2023-02-28T16:37:40;7.38;63.47
77052;SHT30;65980;44.898;8.602;2023-02-28T16:40:44;7.31;64.07
77052;SHT30;65980;44.898;8.602;2023-02-28T16:43:50;7.21;63.71
77052;SHT30;65980;44.898;8.602;2023-02-28T16:46:55;7.11;63.70
77052;SHT30;65980;44.898;8.602;2023-02-28T16:49:59;7.11;64.33
77052;SHT30;65980;44.898;8.602;2023-02-28T16:53:03;6.99;64.18
77052;SHT30;65980;44.898;8.602;2023-02-28T16:56:08;6.87;64.84
77052;SHT30;65980;44.898;8.602;2023-02-28T16:59:17;6.72;65.00
77052;SHT30;65980;44.898;8.602;2023-02-28T17:02:22;6.64;65.53
77052;SHT30;65980;44.898;8.602;2023-02-28T17:05:26;6.58;65.23
77052;SHT30;65980;44.898;8.602;2023-02-28T17:08:33;6.53;65.21
77052;SHT30;65980;44.898;8.602;2023-02-28T17:11:38;6.40;66.02
77052;SHT30;65980;44.898;8.602;2023-02-28T17:14:42;6.31;65.56
77052;SHT30;65980;44.898;8.602;2023-02-28T17:17:46;6.32;65.40
77052;SHT30;65980;44.898;8.602;2023-02-28T17:20:52;6.27;65.45
77052;SHT30;65980;44.898;8.602;2023-02-28T17:23:56;6.10;66.15
77052;SHT30;65980;44.898;8.602;2023-02-28T17:27:00;6.02;66.99
77052;SHT30;65980;44.898;8.602;2023-02-28T17:30:24;5.94;67.70
77052;SHT30;65980;44.898;8.602;2023-02-28T17:33:29;5.80;67.97
77052;SHT30;65980;44.898;8.602;2023-02-28T17:36:33;5.76;67.84
77052;SHT30;65980;44.898;8.602;2023-02-28T17:39:38;5.73;67.98
77052;SHT30;65980;44.898;8.602;2023-02-28T17:42:42;5.65;68.48
77052;SHT30;65980;44.898;8.602;2023-02-28T17:45:46;5.63;68.76
77052;SHT30;65980;44.898;8.602;2023-02-28T17:48:50;5.62;68.41
77052;SHT30;65980;44.898;8.602;2023-02-28T17:51:55;5.56;68.65
77052;SHT30;65980;44.898;8.602;2023-02-28T17:55:01;5.56;69.36
77052;SHT30;65980;44.898;8.602;2023-02-28T17:58:05;5.68;68.43
77052;SHT30;65980;44.898;8.602;2023-02-28T18:01:09;5.35;69.16
77052;SHT30;65980;44.898;8.602;2023-02-28T18:04:14;5.23;69.70
77052;SHT30;65980;44.898;8.602;2023-02-28T18:07:17;5.16;69.65
77052;SHT30;65980;44.898;8.602;2023-02-28T18:10:23;5.00;70.48
77052;SHT30;65980;44.898;8.602;2023-02-28T18:13:27;5.03;70.24
77052;SHT30;65980;44.898;8.602;2023-02-28T18:16:34;4.99;70.37
77052;SHT30;65980;44.898;8.602;2023-02-28T18:19:38;4.96;70.17
77052;SHT30;65980;44.898;8.602;2023-02-28T18:22:42;4.92;69.94
77052;SHT30;65980;44.898;8.602;2023-02-28T18:25:46;4.80;70.36
77052;SHT30;65980;44.898;8.602;2023-02-28T18:28:51;4.71;70.59
77052;SHT30;65980;44.898;8.602;2023-02-28T18:31:55;4.65;70.98
77052;SHT30;65980;44.898;8.602;2023-02-28T18:34:59;4.68;70.84
77052;SHT30;65980;44.898;8.602;2023-02-28T18:38:08;4.68;70.56
77052;SHT30;65980;44.898;8.602;2023-02-28T18:41:14;4.68;70.58
77052;SHT30;65980;44.898;8.602;2023-02-28T18:44:17;4.68;70.52
77052;SHT30;65980;44.898;8.602;2023-02-28T18:47:21;4.75;70.42
77052;SHT30;65980;44.898;8.602;2023-02-28T18:50:26;4.73;70.40
77052;SHT30;65980;44.898;8.602;2023-02-28T18:53:29;4.66;70.83
77052;SHT30;65980;44.898;8.602;2023-02-28T18:56:35;4.54;71.10
77052;SHT30;65980;44.898;8.602;2023-02-28T18:59:40;4.49;71.38
77052;SHT30;65980;44.898;8.602;2023-02-28T19:02:45;4.61;70.90
77052;SHT30;65980;44.898;8.602;2023-02-28T19:05:59;4.59;71.22
77052;SHT30;65980;44.898;8.602;2023-02-28T19:09:04;4.47;71.97
77052;SHT30;65980;44.898;8.602;2023-02-28T19:12:09;4.54;72.05
77052;SHT30;65980;44.898;8.602;2023-02-28T19:15:14;4.55;72.20
77052;SHT30;65980;44.898;8.602;2023-02-28T19:18:19;4.41;72.98
77052;SHT30;65980;44.898;8.602;2023-02-28T19:21:23;4.40;73.22
77052;SHT30;65980;44.898;8.602;2023-02-28T19:24:27;4.24;73.82
77052;SHT30;65980;44.898;8.602;2023-02-28T19:27:32;4.16;74.11
77052;SHT30;65980;44.898;8.602;2023-02-28T19:30:36;4.11;74.67
77052;SHT30;65980;44.898;8.602;2023-02-28T19:33:41;4.10;74.98
77052;SHT30;65980;44.898;8.602;2023-02-28T19:36:45;4.09;75.51
77052;SHT30;65980;44.898;8.602;2023-02-28T19:39:49;3.95;75.99
77052;SHT30;65980;44.898;8.602;2023-02-28T19:42:55;3.83;76.41
77052;SHT30;65980;44.898;8.602;2023-02-28T19:46:00;3.79;76.85
77052;SHT30;65980;44.898;8.602;2023-02-28T19:49:04;3.69;77.03
77052;SHT30;65980;44.898;8.602;2023-02-28T19:52:09;3.62;77.28
77052;SHT30;65980;44.898;8.602;2023-02-28T19:55:14;3.55;77.53
77052;SHT30;65980;44.898;8.602;2023-02-28T19:58:19;3.54;77.80
77052;SHT30;65980;44.898;8.602;2023-02-28T20:01:22;3.59;77.75
77052;SHT30;65980;44.898;8.602;2023-02-28T20:04:26;3.62;77.53
77052;SHT30;65980;44.898;8.602;2023-02-28T20:07:30;3.62;77.50
77052;SHT30;65980;44.898;8.602;2023-02-28T20:10:35;3.67;77.35
77052;SHT30;65980;44.898;8.602;2023-02-28T20:13:39;3.62;77.33
77052;SHT30;65980;44.898;8.602;2023-02-28T20:16:44;3.58;77.81
77052;SHT30;65980;44.898;8.602;2023-02-28T20:19:49;3.71;77.36
77052;SHT30;65980;44.898;8.602;2023-02-28T20:22:56;3.79;76.75
77052;SHT30;65980;44.898;8.602;2023-02-28T20:26:01;3.71;77.00
77052;SHT30;65980;44.898;8.602;2023-02-28T20:29:06;3.61;77.20
77052;SHT30;65980;44.898;8.602;2023-02-28T20:32:13;3.61;77.20
77052;SHT30;65980;44.898;8.602;2023-02-28T20:35:18;3.52;77.58
77052;SHT30;65980;44.898;8.602;2023-02-28T20:38:22;3.44;77.70
77052;SHT30;65980;44.898;8.602;2023-02-28T20:41:27;3.40;78.18
77052;SHT30;65980;44.898;8.602;2023-02-28T20:44:31;3.34;78.56
77052;SHT30;65980;44.898;8.602;2023-02-28T20:47:35;3.13;78.89
77052;SHT30;65980;44.898;8.602;2023-02-28T20:50:39;3.12;78.81
77052;SHT30;65980;44.898;8.602;2023-02-28T20:53:44;3.09;78.90
77052;SHT30;65980;44.898;8.602;2023-02-28T20:56:48;3.00;79.24
77052;SHT30;65980;44.898;8.602;2023-02-28T20:59:52;2.89;79.82
77052;SHT30;65980;44.898;8.602;2023-02-28T21:02:56;2.89;80.00
77052;SHT30;65980;44.898;8.602;2023-02-28T21:06:02;2.88;79.89
77052;SHT30;65980;44.898;8.602;2023-02-28T21:09:07;2.89;79.85
77052;SHT30;65980;44.898;8.602;2023-02-28T21:12:11;2.82;80.11
77052;SHT30;65980;44.898;8.602;2023-02-28T21:15:15;2.78;80.44
77052;SHT30;65980;44.898;8.602;2023-02-28T21:18:20;2.75;80.34
77052;SHT30;65980;44.898;8.602;2023-02-28T21:21:25;2.69;80.58
77052;SHT30;65980;44.898;8.602;2023-02-28T21:24:30;2.66;80.65
77052;SHT30;65980;44.898;8.602;2023-02-28T21:27:34;2.66;80.63
77052;SHT30;65980;44.898;8.602;2023-02-28T21:30:37;2.69;81.06
77052;SHT30;65980;44.898;8.602;2023-02-28T21:33:42;2.75;81.17
77052;SHT30;65980;44.898;8.602;2023-02-28T21:36:46;2.74;80.82
77052;SHT30;65980;44.898;8.602;2023-02-28T21:39:51;2.95;79.75
77052;SHT30;65980;44.898;8.602;2023-02-28T21:42:55;3.14;78.82
77052;SHT30;65980;44.898;8.602;2023-02-28T21:46:00;3.27;78.00
77052;SHT30;65980;44.898;8.602;2023-02-28T21:49:04;3.38;77.69
77052;SHT30;65980;44.898;8.602;2023-02-28T21:52:08;3.57;76.63
77052;SHT30;65980;44.898;8.602;2023-02-28T21:55:12;3.50;76.45
77052;SHT30;65980;44.898;8.602;2023-02-28T21:58:16;3.58;76.56
77052;SHT30;65980;44.898;8.602;2023-02-28T22:01:21;3.72;75.33
77052;SHT30;65980;44.898;8.602;2023-02-28T22:04:26;3.76;75.65
77052;SHT30;65980;44.898;8.602;2023-02-28T22:07:29;3.45;77.35
77052;SHT30;65980;44.898;8.602;2023-02-28T22:10:34;3.61;76.54
77052;SHT30;65980;44.898;8.602;2023-02-28T22:13:39;3.81;75.90
77052;SHT30;65980;44.898;8.602;2023-02-28T22:16:43;3.76;75.48
77052;SHT30;65980;44.898;8.602;2023-02-28T22:19:50;3.07;78.75
77052;SHT30;65980;44.898;8.602;2023-02-28T22:22:55;2.93;79.06